sensor_id;sensor_type;location;lat;lon;timestamp;P1;durP1;ratioP1;P2;durP2;ratioP2
19812;SDS011;10066;48.108;11.448;2023-06-04T00:02:04;7.00;;;4.23;;
19812;SDS011;10066;48.108;11.448;2023-06-04T00:04:31;6.40;;;4.17;;
19812;SDS011;10066;48.108;11.448;2023-06-04T00:06:58;5.27;;;3.50;;
19812;SDS011;10066;48.108;11.448;2023-06-04T00:09:25;5.87;;;3.60;;
19812;SDS011;10066;48.108;11.448;2023-06-04T00:11:53;6.23;;;3.70;;
19812;SDS011;10066;48.108;11.448;2023-06-04T00:14:20;6.17;;;3.67;;
19812;SDS011;10066;48.108;11.448;2023-06-04T00:16:47;6.27;;;3.90;;
19812;SDS011;10066;48.108;11.448;2023-06-04T00:19:14;6.20;;;3.70;;
19812;SDS011;10066;48.108;11.448;2023-06-04T00:21:40;5.23;;;4.00;;
19812;SDS011;10066;48.108;11.448;2023-06-04T00:24:07;5.93;;;4.33;;
19812;SDS011;10066;48.108;11.448;2023-06-04T00:26:37;5.40;;;3.80;;
19812;SDS011;10066;48.108;11.448;2023-06-04T00:29:05;8.63;;;3.80;;
19812;SDS011;10066;48.108;11.448;2023-06-04T00:31:32;6.17;;;3.63;;
19812;SDS011;10066;48.108;11.448;2023-06-04T00:34:00;5.00;;;3.80;;
19812;SDS011;10066;48.108;11.448;2023-06-04T00:36:27;5.30;;;3.70;;
19812;SDS011;10066;48.108;11.448;2023-06-04T00:38:54;6.30;;;3.87;;
19812;SDS011;10066;48.108;11.448;2023-06-04T00:41:21;5.17;;;3.73;;
19812;SDS011;10066;48.108;11.448;2023-06-04T00:43:48;6.60;;;4.33;;
19812;SDS011;10066;48.108;11.448;2023-06-04T00:46:22;6.33;;;4.23;;
19812;SDS011;10066;48.108;11.448;2023-06-04T00:48:50;5.27;;;4.07;;
19812;SDS011;10066;48.108;11.448;2023-06-04T00:51:18;6.63;;;3.97;;
19812;SDS011;10066;48.108;11.448;2023-06-04T00:53:46;7.03;;;3.80;;
19812;SDS011;10066;48.108;11.448;2023-06-04T00:56:13;6.43;;;4.10;;
19812;SDS011;10066;48.108;11.448;2023-06-04T00:58:40;6.13;;;3.80;;
19812;SDS011;10066;48.108;11.448;2023-06-04T01:01:10;5.03;;;3.70;;
19812;SDS011;10066;48.108;11.448;2023-06-04T01:03:49;7.17;;;3.90;;
19812;SDS011;10066;48.108;11.448;2023-06-04T01:06:21;6.93;;;3.50;;
19812;SDS011;10066;48.108;11.448;2023-06-04T01:08:54;5.17;;;3.43;;
19812;SDS011;10066;48.108;11.448;2023-06-04T01:11:31;9.43;;;3.90;;
19812;SDS011;10066;48.108;11.448;2023-06-04T01:13:59;5.60;;;3.60;;
19812;SDS011;10066;48.108;11.448;2023-06-04T01:16:27;12.50;;;4.07;;
19812;SDS011;10066;48.108;11.448;2023-06-04T01:18:59;5.80;;;4.40;;
19812;SDS011;10066;48.108;11.448;2023-06-04T01:21:34;6.10;;;3.73;;
19812;SDS011;10066;48.108;11.448;2023-06-04T01:24:04;5.60;;;3.93;;
19812;SDS011;10066;48.108;11.448;2023-06-04T01:26:33;5.80;;;4.20;;
19812;SDS011;10066;48.108;11.448;2023-06-04T01:29:00;4.87;;;4.30;;
19812;SDS011;10066;48.108;11.448;2023-06-04T01:31:27;6.57;;;3.70;;
19812;SDS011;10066;48.108;11.448;2023-06-04T01:33:57;5.87;;;3.73;;
19812;SDS011;10066;48.108;11.448;2023-06-04T01:36:27;6.83;;;4.10;;
19812;SDS011;10066;48.108;11.448;2023-06-04T01:38:53;7.03;;;3.70;;
19812;SDS011;10066;48.108;11.448;2023-06-04T01:41:20;5.93;;;3.70;;
19812;SDS011;10066;48.108;11.448;2023-06-04T01:43:47;6.83;;;3.87;;
19812;SDS011;10066;48.108;11.448;2023-06-04T01:46:15;6.73;;;3.50;;
19812;SDS011;10066;48.108;11.448;2023-06-04T01:48:42;5.50;;;3.70;;
19812;SDS011;10066;48.108;11.448;2023-06-04T01:51:10;5.67;;;3.80;;
19812;SDS011;10066;48.108;11.448;2023-06-04T01:53:37;5.87;;;3.63;;
19812;SDS011;10066;48.108;11.448;2023-06-04T01:56:04;5.73;;;3.33;;
19812;SDS011;10066;48.108;11.448;2023-06-04T01:58:32;6.07;;;3.57;;
19812;SDS011;10066;48.108;11.448;2023-06-04T02:00:59;6.73;;;3.57;;
19812;SDS011;10066;48.108;11.448;2023-06-04T02:03:28;4.63;;;3.57;;
19812;SDS011;10066;48.108;11.448;2023-06-04T02:06:01;4.90;;;4.13;;
19812;SDS011;10066;48.108;11.448;2023-06-04T02:08:29;7.50;;;3.70;;
19812;SDS011;10066;48.108;11.448;2023-06-04T02:10:58;5.97;;;4.07;;
19812;SDS011;10066;48.108;11.448;2023-06-04T02:13:25;6.03;;;4.40;;
19812;SDS011;10066;48.108;11.448;2023-06-04T02:15:52;6.53;;;3.60;;
19812;SDS011;10066;48.108;11.448;2023-06-04T02:18:20;5.10;;;3.70;;
19812;SDS011;10066;48.108;11.448;2023-06-04T02:20:47;5.43;;;4.00;;
19812;SDS011;10066;48.108;11.448;2023-06-04T02:23:16;6.97;;;3.87;;
19812;SDS011;10066;48.108;11.448;2023-06-04T02:25:45;7.33;;;3.97;;
19812;SDS011;10066;48.108;11.448;2023-06-04T02:28:14;6.73;;;3.93;;
19812;SDS011;10066;48.108;11.448;2023-06-04T02:30:42;4.73;;;4.10;;
19812;SDS011;10066;48.108;11.448;2023-06-04T02:33:10;6.43;;;4.03;;
19812;SDS011;10066;48.108;11.448;2023-06-04T02:35:37;6.70;;;3.90;;
19812;SDS011;10066;48.108;11.448;2023-06-04T02:38:04;5.97;;;4.07;;
19812;SDS011;10066;48.108;11.448;2023-06-04T02:40:31;5.57;;;3.87;;
19812;SDS011;10066;48.108;11.448;2023-06-04T02:42:59;6.70;;;4.10;;
19812;SDS011;10066;48.108;11.448;2023-06-04T02:45:26;5.70;;;3.93;;
19812;SDS011;10066;48.108;11.448;2023-06-04T02:47:53;5.40;;;4.00;;
19812;SDS011;10066;48.108;11.448;2023-06-04T02:50:21;6.63;;;4.00;;
19812;SDS011;10066;48.108;11.448;2023-06-04T02:52:48;7.63;;;4.20;;
19812;SDS011;10066;48.108;11.448;2023-06-04T02:55:15;5.83;;;4.20;;
19812;SDS011;10066;48.108;11.448;2023-06-04T02:57:42;5.97;;;3.97;;
19812;SDS011;10066;48.108;11.448;2023-06-04T03:00:11;6.40;;;4.37;;
19812;SDS011;10066;48.108;11.448;2023-06-04T03:02:40;5.07;;;3.87;;
19812;SDS011;10066;48.108;11.448;2023-06-04T03:05:10;4.90;;;3.90;;
19812;SDS011;10066;48.108;11.448;2023-06-04T03:07:38;5.77;;;3.93;;
19812;SDS011;10066;48.108;11.448;2023-06-04T03:10:08;5.23;;;3.70;;
19812;SDS011;10066;48.108;11.448;2023-06-04T03:12:35;6.80;;;4.43;;
19812;SDS011;10066;48.108;11.448;2023-06-04T03:15:02;6.17;;;4.23;;
19812;SDS011;10066;48.108;11.448;2023-06-04T03:17:31;7.90;;;4.50;;
19812;SDS011;10066;48.108;11.448;2023-06-04T03:19:58;5.87;;;3.90;;
19812;SDS011;10066;48.108;11.448;2023-06-04T03:22:25;6.13;;;4.27;;
19812;SDS011;10066;48.108;11.448;2023-06-04T03:24:53;6.73;;;3.90;;
19812;SDS011;10066;48.108;11.448;2023-06-04T03:27:20;5.97;;;4.17;;
19812;SDS011;10066;48.108;11.448;2023-06-04T03:29:47;4.97;;;4.13;;
19812;SDS011;10066;48.108;11.448;2023-06-04T03:32:14;5.73;;;3.93;;
19812;SDS011;10066;48.108;11.448;2023-06-04T03:34:43;6.70;;;4.50;;
19812;SDS011;10066;48.108;11.448;2023-06-04T03:37:10;5.67;;;3.87;;
19812;SDS011;10066;48.108;11.448;2023-06-04T03:39:37;6.23;;;4.10;;
19812;SDS011;10066;48.108;11.448;2023-06-04T03:42:04;7.90;;;4.70;;
19812;SDS011;10066;48.108;11.448;2023-06-04T03:44:31;6.87;;;4.20;;
19812;SDS011;10066;48.108;11.448;2023-06-04T03:46:58;6.93;;;4.50;;
19812;SDS011;10066;48.108;11.448;2023-06-04T03:49:25;8.57;;;4.40;;
19812;SDS011;10066;48.108;11.448;2023-06-04T03:51:53;7.40;;;4.10;;
19812;SDS011;10066;48.108;11.448;2023-06-04T03:54:21;5.77;;;4.30;;
19812;SDS011;10066;48.108;11.448;2023-06-04T03:56:48;5.63;;;4.20;;
19812;SDS011;10066;48.108;11.448;2023-06-04T03:59:16;5.67;;;3.70;;
19812;SDS011;10066;48.108;11.448;2023-06-04T04:01:43;7.57;;;4.00;;
19812;SDS011;10066;48.108;11.448;2023-06-04T04:04:10;5.80;;;3.90;;
19812;SDS011;10066;48.108;11.448;2023-06-04T04:06:37;6.37;;;3.47;;
19812;SDS011;10066;48.108;11.448;2023-06-04T04:09:06;5.87;;;3.70;;
19812;SDS011;10066;48.108;11.448;2023-06-04T04:11:33;3.73;;;3.20;;
19812;SDS011;10066;48.108;11.448;2023-06-04T04:14:00;4.53;;;3.60;;
19812;SDS011;10066;48.108;11.448;2023-06-04T04:16:27;5.70;;;3.30;;
19812;SDS011;10066;48.108;11.448;2023-06-04T04:18:54;4.33;;;3.20;;
19812;SDS011;10066;48.108;11.448;2023-06-04T04:21:22;6.30;;;3.20;;
19812;SDS011;10066;48.108;11.448;2023-06-04T04:23:50;6.30;;;2.97;;
19812;SDS011;10066;48.108;11.448;2023-06-04T04:26:19;4.13;;;3.13;;
19812;SDS011;10066;48.108;11.448;2023-06-04T04:28:46;7.07;;;3.20;;
19812;SDS011;10066;48.108;11.448;2023-06-04T04:31:12;4.17;;;2.90;;
19812;SDS011;10066;48.108;11.448;2023-06-04T04:33:39;4.40;;;2.80;;
19812;SDS011;10066;48.108;11.448;2023-06-04T04:36:07;4.60;;;3.20;;
19812;SDS011;10066;48.108;11.448;2023-06-04T04:38:38;6.87;;;3.23;;
19812;SDS011;10066;48.108;11.448;2023-06-04T04:41:05;8.73;;;3.50;;
19812;SDS011;10066;48.108;11.448;2023-06-04T04:43:35;4.93;;;3.00;;
19812;SDS011;10066;48.108;11.448;2023-06-04T04:46:04;3.53;;;3.07;;
19812;SDS011;10066;48.108;11.448;2023-06-04T04:48:31;4.63;;;3.57;;
19812;SDS011;10066;48.108;11.448;2023-06-04T04:50:58;5.87;;;2.80;;
19812;SDS011;10066;48.108;11.448;2023-06-04T04:53:26;5.13;;;3.00;;
19812;SDS011;10066;48.108;11.448;2023-06-04T04:55:53;4.43;;;2.77;;
19812;SDS011;10066;48.108;11.448;2023-06-04T04:58:20;5.17;;;3.10;;
19812;SDS011;10066;48.108;11.448;2023-06-04T05:00:48;6.10;;;2.80;;
19812;SDS011;10066;48.108;11.448;2023-06-04T05:03:16;9.77;;;3.10;;
19812;SDS011;10066;48.108;11.448;2023-06-04T05:05:43;4.63;;;3.00;;
19812;SDS011;10066;48.108;11.448;2023-06-04T05:08:10;5.77;;;3.20;;
19812;SDS011;10066;48.108;11.448;2023-06-04T05:10:37;8.37;;;3.67;;
19812;SDS011;10066;48.108;11.448;2023-06-04T05:13:04;9.17;;;3.27;;
19812;SDS011;10066;48.108;11.448;2023-06-04T05:15:31;6.03;;;3.30;;
19812;SDS011;10066;48.108;11.448;2023-06-04T05:17:59;4.93;;;2.93;;
19812;SDS011;10066;48.108;11.448;2023-06-04T05:20:28;6.13;;;3.23;;
19812;SDS011;10066;48.108;11.448;2023-06-04T05:22:55;6.37;;;3.07;;
19812;SDS011;10066;48.108;11.448;2023-06-04T05:25:22;4.90;;;3.30;;
19812;SDS011;10066;48.108;11.448;2023-06-04T05:27:49;4.80;;;2.80;;
19812;SDS011;10066;48.108;11.448;2023-06-04T05:30:16;6.87;;;2.77;;
19812;SDS011;10066;48.108;11.448;2023-06-04T05:32:43;3.07;;;2.63;;
19812;SDS011;10066;48.108;11.448;2023-06-04T05:35:11;4.77;;;3.00;;
19812;SDS011;10066;48.108;11.448;2023-06-04T05:37:38;4.33;;;2.60;;
19812;SDS011;10066;48.108;11.448;2023-06-04T05:40:07;5.10;;;2.77;;
19812;SDS011;10066;48.108;11.448;2023-06-04T05:42:35;6.33;;;3.07;;
19812;SDS011;10066;48.108;11.448;2023-06-04T05:45:03;3.93;;;2.67;;
19812;SDS011;10066;48.108;11.448;2023-06-04T05:47:30;4.93;;;2.87;;
19812;SDS011;10066;48.108;11.448;2023-06-04T05:49:57;4.70;;;2.90;;
19812;SDS011;10066;48.108;11.448;2023-06-04T05:52:26;4.07;;;2.70;;
19812;SDS011;10066;48.108;11.448;2023-06-04T05:54:52;4.87;;;2.60;;
19812;SDS011;10066;48.108;11.448;2023-06-04T05:57:19;7.83;;;2.90;;
19812;SDS011;10066;48.108;11.448;2023-06-04T05:59:47;8.27;;;2.50;;
19812;SDS011;10066;48.108;11.448;2023-06-04T06:02:13;5.23;;;2.60;;
19812;SDS011;10066;48.108;11.448;2023-06-04T06:04:41;5.00;;;2.63;;
19812;SDS011;10066;48.108;11.448;2023-06-04T06:07:08;4.63;;;2.70;;
19812;SDS011;10066;48.108;11.448;2023-06-04T06:09:36;6.37;;;2.83;;
19812;SDS011;10066;48.108;11.448;2023-06-04T06:12:03;5.93;;;2.63;;
19812;SDS011;10066;48.108;11.448;2023-06-04T06:14:31;5.43;;;2.63;;
19812;SDS011;10066;48.108;11.448;2023-06-04T06:16:58;6.93;;;2.80;;
19812;SDS011;10066;48.108;11.448;2023-06-04T06:19:28;5.13;;;3.10;;
19812;SDS011;10066;48.108;11.448;2023-06-04T06:21:55;6.83;;;2.50;;
19812;SDS011;10066;48.108;11.448;2023-06-04T06:24:23;6.77;;;2.77;;
19812;SDS011;10066;48.108;11.448;2023-06-04T06:26:51;4.73;;;2.73;;
19812;SDS011;10066;48.108;11.448;2023-06-04T06:29:18;6.00;;;2.40;;
19812;SDS011;10066;48.108;11.448;2023-06-04T06:31:45;6.60;;;2.37;;
19812;SDS011;10066;48.108;11.448;2023-06-04T06:34:13;6.13;;;2.40;;
19812;SDS011;10066;48.108;11.448;2023-06-04T06:36:40;3.17;;;2.27;;
19812;SDS011;10066;48.108;11.448;2023-06-04T06:39:07;4.43;;;2.50;;
19812;SDS011;10066;48.108;11.448;2023-06-04T06:41:35;4.63;;;2.77;;
19812;SDS011;10066;48.108;11.448;2023-06-04T06:44:05;5.30;;;2.63;;
19812;SDS011;10066;48.108;11.448;2023-06-04T06:46:31;3.87;;;2.80;;
19812;SDS011;10066;48.108;11.448;2023-06-04T06:48:58;7.00;;;2.70;;
19812;SDS011;10066;48.108;11.448;2023-06-04T06:51:25;6.00;;;3.00;;
19812;SDS011;10066;48.108;11.448;2023-06-04T06:53:52;6.60;;;2.60;;
19812;SDS011;10066;48.108;11.448;2023-06-04T06:56:19;5.30;;;2.50;;
19812;SDS011;10066;48.108;11.448;2023-06-04T06:58:46;7.40;;;2.90;;
19812;SDS011;10066;48.108;11.448;2023-06-04T07:01:14;4.67;;;2.90;;
19812;SDS011;10066;48.108;11.448;2023-06-04T07:03:41;5.03;;;2.93;;
19812;SDS011;10066;48.108;11.448;2023-06-04T07:06:08;5.60;;;2.57;;
19812;SDS011;10066;48.108;11.448;2023-06-04T07:08:35;4.10;;;2.73;;
19812;SDS011;10066;48.108;11.448;2023-06-04T07:11:02;4.23;;;2.53;;
19812;SDS011;10066;48.108;11.448;2023-06-04T07:13:29;3.53;;;2.50;;
19812;SDS011;10066;48.108;11.448;2023-06-04T07:15:57;3.90;;;2.60;;
19812;SDS011;10066;48.108;11.448;2023-06-04T07:18:26;5.33;;;2.93;;
19812;SDS011;10066;48.108;11.448;2023-06-04T07:20:53;4.90;;;2.57;;
19812;SDS011;10066;48.108;11.448;2023-06-04T07:23:20;4.17;;;2.57;;
19812;SDS011;10066;48.108;11.448;2023-06-04T07:25:46;4.63;;;2.97;;
19812;SDS011;10066;48.108;11.448;2023-06-04T07:28:14;3.43;;;2.50;;
19812;SDS011;10066;48.108;11.448;2023-06-04T07:30:40;4.37;;;2.97;;
19812;SDS011;10066;48.108;11.448;2023-06-04T07:33:07;5.90;;;2.90;;
19812;SDS011;10066;48.108;11.448;2023-06-04T07:35:36;6.40;;;3.03;;
19812;SDS011;10066;48.108;11.448;2023-06-04T07:38:03;6.57;;;2.90;;
19812;SDS011;10066;48.108;11.448;2023-06-04T07:40:29;5.17;;;2.80;;
19812;SDS011;10066;48.108;11.448;2023-06-04T07:42:56;6.30;;;2.70;;
19812;SDS011;10066;48.108;11.448;2023-06-04T07:45:23;3.63;;;2.77;;
19812;SDS011;10066;48.108;11.448;2023-06-04T07:47:50;5.23;;;2.90;;
19812;SDS011;10066;48.108;11.448;2023-06-04T07:50:17;6.73;;;2.90;;
19812;SDS011;10066;48.108;11.448;2023-06-04T07:52:46;7.20;;;2.70;;
19812;SDS011;10066;48.108;11.448;2023-06-04T07:55:12;5.07;;;2.70;;
19812;SDS011;10066;48.108;11.448;2023-06-04T07:57:39;3.57;;;2.60;;
19812;SDS011;10066;48.108;11.448;2023-06-04T08:00:07;3.83;;;2.47;;
19812;SDS011;10066;48.108;11.448;2023-06-04T08:02:34;3.33;;;2.17;;
19812;SDS011;10066;48.108;11.448;2023-06-04T08:05:01;6.23;;;2.90;;
19812;SDS011;10066;48.108;11.448;2023-06-04T08:07:29;6.07;;;2.77;;
19812;SDS011;10066;48.108;11.448;2023-06-04T08:09:57;3.53;;;2.50;;
19812;SDS011;10066;48.108;11.448;2023-06-04T08:12:24;4.80;;;2.63;;
19812;SDS011;10066;48.108;11.448;2023-06-04T08:14:51;4.00;;;3.07;;
19812;SDS011;10066;48.108;11.448;2023-06-04T08:17:21;7.40;;;2.30;;
19812;SDS011;10066;48.108;11.448;2023-06-04T08:19:48;4.60;;;2.60;;
19812;SDS011;10066;48.108;11.448;2023-06-04T08:22:15;5.33;;;2.50;;
19812;SDS011;10066;48.108;11.448;2023-06-04T08:24:43;5.13;;;2.60;;
19812;SDS011;10066;48.108;11.448;2023-06-04T08:27:11;3.83;;;2.40;;
19812;SDS011;10066;48.108;11.448;2023-06-04T08:29:38;5.77;;;2.40;;
19812;SDS011;10066;48.108;11.448;2023-06-04T08:32:05;6.03;;;2.17;;
19812;SDS011;10066;48.108;11.448;2023-06-04T08:34:33;3.70;;;2.30;;
19812;SDS011;10066;48.108;11.448;2023-06-04T08:37:00;6.83;;;2.40;;
19812;SDS011;10066;48.108;11.448;2023-06-04T08:39:27;3.30;;;2.53;;
19812;SDS011;10066;48.108;11.448;2023-06-04T08:41:54;3.77;;;2.40;;
19812;SDS011;10066;48.108;11.448;2023-06-04T08:44:27;4.17;;;2.43;;
19812;SDS011;10066;48.108;11.448;2023-06-04T08:46:55;3.87;;;2.37;;
19812;SDS011;10066;48.108;11.448;2023-06-04T08:49:28;3.27;;;2.33;;
19812;SDS011;10066;48.108;11.448;2023-06-04T08:51:58;5.50;;;2.33;;
19812;SDS011;10066;48.108;11.448;2023-06-04T08:54:26;2.77;;;1.90;;
19812;SDS011;10066;48.108;11.448;2023-06-04T08:56:55;3.10;;;2.17;;
19812;SDS011;10066;48.108;11.448;2023-06-04T08:59:22;4.03;;;2.50;;
19812;SDS011;10066;48.108;11.448;2023-06-04T09:01:52;5.13;;;2.43;;
19812;SDS011;10066;48.108;11.448;2023-06-04T09:04:21;6.17;;;2.10;;
19812;SDS011;10066;48.108;11.448;2023-06-04T09:06:48;3.87;;;2.30;;
19812;SDS011;10066;48.108;11.448;2023-06-04T09:09:15;6.77;;;2.40;;
19812;SDS011;10066;48.108;11.448;2023-06-04T09:11:45;3.47;;;2.57;;
19812;SDS011;10066;48.108;11.448;2023-06-04T09:14:16;3.77;;;2.20;;
19812;SDS011;10066;48.108;11.448;2023-06-04T09:16:43;5.03;;;2.20;;
19812;SDS011;10066;48.108;11.448;2023-06-04T09:19:12;5.67;;;2.23;;
19812;SDS011;10066;48.108;11.448;2023-06-04T09:21:46;3.43;;;2.20;;
19812;SDS011;10066;48.108;11.448;2023-06-04T09:24:14;3.00;;;2.30;;
19812;SDS011;10066;48.108;11.448;2023-06-04T09:26:41;6.07;;;2.50;;
19812;SDS011;10066;48.108;11.448;2023-06-04T09:29:08;6.03;;;2.43;;
19812;SDS011;10066;48.108;11.448;2023-06-04T09:31:35;3.87;;;2.37;;
19812;SDS011;10066;48.108;11.448;2023-06-04T09:34:05;3.17;;;2.20;;
19812;SDS011;10066;48.108;11.448;2023-06-04T09:36:34;5.27;;;2.30;;
19812;SDS011;10066;48.108;11.448;2023-06-04T09:39:03;3.30;;;2.13;;
19812;SDS011;10066;48.108;11.448;2023-06-04T09:41:30;3.80;;;2.10;;
19812;SDS011;10066;48.108;11.448;2023-06-04T09:44:00;6.33;;;2.37;;
19812;SDS011;10066;48.108;11.448;2023-06-04T09:46:28;5.90;;;2.10;;
19812;SDS011;10066;48.108;11.448;2023-06-04T09:48:59;6.33;;;2.20;;
19812;SDS011;10066;48.108;11.448;2023-06-04T09:51:29;2.40;;;1.97;;
19812;SDS011;10066;48.108;11.448;2023-06-04T09:53:58;5.37;;;2.50;;
19812;SDS011;10066;48.108;11.448;2023-06-04T09:56:26;3.77;;;2.40;;
19812;SDS011;10066;48.108;11.448;2023-06-04T09:58:54;4.37;;;2.40;;
19812;SDS011;10066;48.108;11.448;2023-06-04T10:01:22;3.33;;;2.27;;
19812;SDS011;10066;48.108;11.448;2023-06-04T10:03:51;5.67;;;2.40;;
19812;SDS011;10066;48.108;11.448;2023-06-04T10:06:20;2.83;;;2.43;;
19812;SDS011;10066;48.108;11.448;2023-06-04T10:08:48;4.53;;;2.60;;
19812;SDS011;10066;48.108;11.448;2023-06-04T10:11:17;6.07;;;2.77;;
19812;SDS011;10066;48.108;11.448;2023-06-04T10:13:49;3.63;;;2.50;;
19812;SDS011;10066;48.108;11.448;2023-06-04T10:16:20;3.70;;;1.77;;
19812;SDS011;10066;48.108;11.448;2023-06-04T10:18:49;4.73;;;2.43;;
19812;SDS011;10066;48.108;11.448;2023-06-04T10:21:20;3.80;;;2.30;;
19812;SDS011;10066;48.108;11.448;2023-06-04T10:23:47;4.10;;;2.40;;
19812;SDS011;10066;48.108;11.448;2023-06-04T10:26:16;2.83;;;1.60;;
19812;SDS011;10066;48.108;11.448;2023-06-04T10:28:44;5.27;;;2.40;;
19812;SDS011;10066;48.108;11.448;2023-06-04T10:31:11;5.73;;;2.87;;
19812;SDS011;10066;48.108;11.448;2023-06-04T10:33:38;4.13;;;2.63;;
19812;SDS011;10066;48.108;11.448;2023-06-04T10:36:18;2.43;;;1.70;;
19812;SDS011;10066;48.108;11.448;2023-06-04T10:38:46;6.80;;;2.07;;
19812;SDS011;10066;48.108;11.448;2023-06-04T10:41:13;3.27;;;2.50;;
19812;SDS011;10066;48.108;11.448;2023-06-04T10:43:42;6.87;;;2.23;;
19812;SDS011;10066;48.108;11.448;2023-06-04T10:46:11;3.60;;;2.37;;
19812;SDS011;10066;48.108;11.448;2023-06-04T10:48:44;5.67;;;2.40;;
19812;SDS011;10066;48.108;11.448;2023-06-04T10:51:12;2.70;;;2.37;;
19812;SDS011;10066;48.108;11.448;2023-06-04T10:53:39;5.40;;;2.77;;
19812;SDS011;10066;48.108;11.448;2023-06-04T10:56:06;4.73;;;2.20;;
19812;SDS011;10066;48.108;11.448;2023-06-04T10:58:33;8.87;;;2.70;;
19812;SDS011;10066;48.108;11.448;2023-06-04T11:01:02;4.47;;;2.60;;
19812;SDS011;10066;48.108;11.448;2023-06-04T11:03:34;2.97;;;2.10;;
19812;SDS011;10066;48.108;11.448;2023-06-04T11:06:02;5.90;;;1.73;;
19812;SDS011;10066;48.108;11.448;2023-06-04T11:08:40;6.97;;;2.50;;
19812;SDS011;10066;48.108;11.448;2023-06-04T11:11:10;4.53;;;3.00;;
19812;SDS011;10066;48.108;11.448;2023-06-04T11:13:37;3.10;;;2.43;;
19812;SDS011;10066;48.108;11.448;2023-06-04T11:16:15;3.07;;;2.40;;
19812;SDS011;10066;48.108;11.448;2023-06-04T11:18:43;6.63;;;2.80;;
19812;SDS011;10066;48.108;11.448;2023-06-04T11:21:20;3.33;;;2.40;;
19812;SDS011;10066;48.108;11.448;2023-06-04T11:23:47;3.67;;;2.43;;
19812;SDS011;10066;48.108;11.448;2023-06-04T11:26:14;4.07;;;2.63;;
19812;SDS011;10066;48.108;11.448;2023-06-04T11:28:41;6.23;;;2.30;;
19812;SDS011;10066;48.108;11.448;2023-06-04T11:31:09;4.40;;;2.40;;
19812;SDS011;10066;48.108;11.448;2023-06-04T11:33:44;6.37;;;2.33;;
19812;SDS011;10066;48.108;11.448;2023-06-04T11:36:21;5.23;;;2.60;;
19812;SDS011;10066;48.108;11.448;2023-06-04T11:38:53;6.00;;;2.60;;
19812;SDS011;10066;48.108;11.448;2023-06-04T11:41:21;5.97;;;2.80;;
19812;SDS011;10066;48.108;11.448;2023-06-04T11:43:49;4.87;;;2.60;;
19812;SDS011;10066;48.108;11.448;2023-06-04T11:46:15;4.67;;;2.30;;
19812;SDS011;10066;48.108;11.448;2023-06-04T11:48:42;3.17;;;2.63;;
19812;SDS011;10066;48.108;11.448;2023-06-04T11:51:11;4.10;;;2.47;;
19812;SDS011;10066;48.108;11.448;2023-06-04T11:53:39;6.23;;;2.73;;
19812;SDS011;10066;48.108;11.448;2023-06-04T11:56:06;3.70;;;2.27;;
19812;SDS011;10066;48.108;11.448;2023-06-04T11:58:34;4.03;;;2.20;;
19812;SDS011;10066;48.108;11.448;2023-06-04T12:01:01;8.50;;;2.17;;
19812;SDS011;10066;48.108;11.448;2023-06-04T12:03:33;4.37;;;2.30;;
19812;SDS011;10066;48.108;11.448;2023-06-04T12:06:10;7.07;;;2.90;;
19812;SDS011;10066;48.108;11.448;2023-06-04T12:08:44;3.67;;;2.67;;
19812;SDS011;10066;48.108;11.448;2023-06-04T12:11:21;3.43;;;2.50;;
19812;SDS011;10066;48.108;11.448;2023-06-04T12:13:52;3.57;;;2.50;;
19812;SDS011;10066;48.108;11.448;2023-06-04T12:16:20;6.17;;;2.80;;
19812;SDS011;10066;48.108;11.448;2023-06-04T12:18:47;7.20;;;2.63;;
19812;SDS011;10066;48.108;11.448;2023-06-04T12:21:20;2.50;;;2.03;;
19812;SDS011;10066;48.108;11.448;2023-06-04T12:23:52;3.57;;;2.40;;
19812;SDS011;10066;48.108;11.448;2023-06-04T12:26:20;3.77;;;2.73;;
19812;SDS011;10066;48.108;11.448;2023-06-04T12:29:00;4.70;;;2.80;;
19812;SDS011;10066;48.108;11.448;2023-06-04T12:31:27;6.40;;;2.53;;
19812;SDS011;10066;48.108;11.448;2023-06-04T12:34:05;4.80;;;2.80;;
19812;SDS011;10066;48.108;11.448;2023-06-04T12:36:35;4.17;;;2.70;;
19812;SDS011;10066;48.108;11.448;2023-06-04T12:39:03;4.17;;;2.37;;
19812;SDS011;10066;48.108;11.448;2023-06-04T12:41:32;7.03;;;2.57;;
19812;SDS011;10066;48.108;11.448;2023-06-04T12:43:59;4.63;;;2.97;;
19812;SDS011;10066;48.108;11.448;2023-06-04T12:46:27;5.50;;;2.13;;
19812;SDS011;10066;48.108;11.448;2023-06-04T12:48:54;3.20;;;2.40;;
19812;SDS011;10066;48.108;11.448;2023-06-04T12:51:21;3.50;;;2.40;;
19812;SDS011;10066;48.108;11.448;2023-06-04T12:53:49;4.17;;;2.60;;
19812;SDS011;10066;48.108;11.448;2023-06-04T12:56:16;6.37;;;2.50;;
19812;SDS011;10066;48.108;11.448;2023-06-04T12:58:43;5.97;;;2.93;;
19812;SDS011;10066;48.108;11.448;2023-06-04T13:01:10;6.40;;;2.90;;
19812;SDS011;10066;48.108;11.448;2023-06-04T13:03:39;5.93;;;2.47;;
19812;SDS011;10066;48.108;11.448;2023-06-04T13:06:06;4.80;;;2.83;;
19812;SDS011;10066;48.108;11.448;2023-06-04T13:08:34;3.43;;;2.70;;
19812;SDS011;10066;48.108;11.448;2023-06-04T13:11:03;3.10;;;2.40;;
19812;SDS011;10066;48.108;11.448;2023-06-04T13:13:31;3.83;;;2.30;;
19812;SDS011;10066;48.108;11.448;2023-06-04T13:15:58;3.27;;;2.53;;
19812;SDS011;10066;48.108;11.448;2023-06-04T13:18:25;4.33;;;2.70;;
19812;SDS011;10066;48.108;11.448;2023-06-04T13:20:53;5.53;;;2.87;;
19812;SDS011;10066;48.108;11.448;2023-06-04T13:23:20;4.30;;;2.40;;
19812;SDS011;10066;48.108;11.448;2023-06-04T13:25:47;6.83;;;2.40;;
19812;SDS011;10066;48.108;11.448;2023-06-04T13:28:16;4.77;;;2.70;;
19812;SDS011;10066;48.108;11.448;2023-06-04T13:30:43;3.60;;;2.40;;
19812;SDS011;10066;48.108;11.448;2023-06-04T13:33:10;3.43;;;2.73;;
19812;SDS011;10066;48.108;11.448;2023-06-04T13:35:37;3.77;;;2.43;;
19812;SDS011;10066;48.108;11.448;2023-06-04T13:38:04;4.10;;;2.87;;
19812;SDS011;10066;48.108;11.448;2023-06-04T13:40:33;5.17;;;2.60;;
19812;SDS011;10066;48.108;11.448;2023-06-04T13:43:00;4.70;;;2.57;;
19812;SDS011;10066;48.108;11.448;2023-06-04T13:45:29;3.90;;;2.33;;
19812;SDS011;10066;48.108;11.448;2023-06-04T13:47:56;6.17;;;2.83;;
19812;SDS011;10066;48.108;11.448;2023-06-04T13:50:27;5.87;;;2.60;;
19812;SDS011;10066;48.108;11.448;2023-06-04T13:52:54;5.73;;;2.50;;
19812;SDS011;10066;48.108;11.448;2023-06-04T13:55:21;4.60;;;2.57;;
19812;SDS011;10066;48.108;11.448;2023-06-04T13:57:48;8.30;;;3.00;;
19812;SDS011;10066;48.108;11.448;2023-06-04T14:00:15;5.07;;;2.97;;
19812;SDS011;10066;48.108;11.448;2023-06-04T14:02:43;2.97;;;2.40;;
19812;SDS011;10066;48.108;11.448;2023-06-04T14:05:10;3.70;;;2.80;;
19812;SDS011;10066;48.108;11.448;2023-06-04T14:07:37;5.07;;;2.70;;
19812;SDS011;10066;48.108;11.448;2023-06-04T14:10:04;6.57;;;3.00;;
19812;SDS011;10066;48.108;11.448;2023-06-04T14:12:32;3.07;;;2.40;;
19812;SDS011;10066;48.108;11.448;2023-06-04T14:14:59;3.40;;;2.67;;
19812;SDS011;10066;48.108;11.448;2023-06-04T14:17:26;5.00;;;2.73;;
19812;SDS011;10066;48.108;11.448;2023-06-04T14:19:54;7.20;;;2.97;;
19812;SDS011;10066;48.108;11.448;2023-06-04T14:22:21;3.47;;;2.67;;
19812;SDS011;10066;48.108;11.448;2023-06-04T14:24:48;3.87;;;2.47;;
19812;SDS011;10066;48.108;11.448;2023-06-04T14:27:15;6.43;;;2.70;;
19812;SDS011;10066;48.108;11.448;2023-06-04T14:29:41;4.63;;;3.00;;
19812;SDS011;10066;48.108;11.448;2023-06-04T14:32:09;4.33;;;2.87;;
19812;SDS011;10066;48.108;11.448;2023-06-04T14:34:35;5.90;;;3.10;;
19812;SDS011;10066;48.108;11.448;2023-06-04T14:37:04;7.17;;;2.90;;
19812;SDS011;10066;48.108;11.448;2023-06-04T14:39:31;5.00;;;2.60;;